Página principal
METAR-TAF:

METAR-TAF

Aeroportos :

Oral, Cazaquistão

latitude: 51-15N, longitude: 051-17E, altura: 36 m

Observação actual do tempo

O boletim foi feito há 51 minutos, às 19:00 UTC
Vento 6 kt de oes-sudoeste
Temperatura 12°C
Humidade 54%
Pressão 1018 hPa
Visibilidade 10 km ou mais
sem nuvens abaixo de 1500 metros e sem cumulonimbus

METAR: UARR 241900Z 25003MPS CAVOK 12/03 Q1018 R04/CLRD70 NOSIG RMK QFE760/1013

Hora: 00:51 (19:51 UTC)

Previsão

O boletim foi feito há 2 horas e 51 minutos, às 17:00 UTC
Previsão válida de 24 às 18 UTC a 25 às 03 UTC
Vento 4 kt com direcção variável
Visibilidade 10 km ou mais
sem nuvens abaixo de 1500 metros e sem cumulonimbus

TAF: UARR 241700Z 2418/2503 VRB02MPS CAVOK

Observações e previsões do tempo de mais de 4000 aeroportos (mensagens METAR e TAF).

As estações disponíveis são os pontos amarelos e vermelhos sobre o mapa.

Mova o rato sobre o mapa para ver o nome da estação.

Depois clique no ponto para visualizar as observações e previsões meteorológicas.

Para alterar o mapa : clique nos botões verdes com uma cruz preta para aumentar o zoom; no botão verde com uma pitada de zoom; ou nas setas verdes para mapas adjacentes.


METAR-TAF: